Aérodrome :
LOGIN :

S'inscrire | Disclaimer

   EN    FR    IT 

 










Légende :    VFR   VFR Marginal   IFR   IFR Intensif   IFR Très Intensif
Visi : 
Plafond : 
>= 8 km
>= 3000ft
5 à 8 km
1000 à 3000 ft
1500m à 5 km
500 à 1000 ft
800 à 1500m
200 à 500 ft
< 800m
< 200 ft
Symboles :   Orages  Brouillard  Fortes neiges  Fortes précipitations  Vent > 20 kt
SIGMETs :   Divers  Orages  Givrage  Turbulence  Onde Orograph.  Cendres Volcan.






- Altitude de l'aérodrome : 226 ft
- Code IATA : BEX


EGUB - RAF Benson

DERNIER METAR :
  • 110750Z 18007KT CAVOK 02/01 Q1006 NOSIG RMK BLU BLU

METARs EXPIRÉS :
  • 110650Z 17007KT CAVOK 01/01 Q1006 RMK BLU
  • 110550Z AUTO 18004KT 9999 // FEW033/// 02/01 Q1007
  • 110450Z AUTO 18005KT 9999 // NCD 01/01 Q1007

TAF TAF EGUB
Valide du 11 à 07h jusqu'au 11 à 15h UTC


110657Z 1107/1115 17008KT 9999 FEW030
TEMPO 1112/1115 6000 SHRA BKN015
PROB30
TEMPO 1112/1115 20015G25KT 4000 +SHRA SCT012CB
ATIS : +44 1491-837766 (x7524)



MET'MAP, la Météo Aéronautique d'un coup d'oeil ! - Copyright ORBIFLY Décembre 2007 - Disclaimer

ORBIFLY MET'MAP TEAM :

Programmation & Développement : Alexandra Zaïnal
Sur une idée originale de : Baudouin d'Aumeries
Assistance à la programmation : Marc-Olivier Méhu
Soutien technique & logistique : Manuel Goepfert

Contact : metmap@orbifly.com




SOURCES & CREDITS :

   NOAA